Buttzville, New Jersey
Current Conditions -  °F | °C
As of 9:53 PM on Monday 26 Jan 2015 (Local Time) from KSMQ Reporting Station
Overcast Overcast  
Wind Chill: 17°   Ceiling: 3600
Heat Index: 27°   Visibility: 9mi
Dew Point: 18°   Wind: 10mph
Humidity: 69%   Direction: 30°NNE
Pressure: 29.75"   Gusts: 26mph
Location:  40.83°N, 75.01°W
Report Text: KSMQ 270253Z AUTO 03009G23KT 9SM SCT027 OVC036 M03/M08 A2975 RMK AO2 SLP078 60000 T10281078 58021 TSNO
Loading
Personal Weather Stations






























Interactive Weather Map New forecast layout! Learn more

10-Day Weather Forecast

Advertisements
Track Severe Weather on mobile